Time;durP1;ratioP1;P1;durP2;ratioP2;P2;SDS_P1;SDS_P2;PMS_P1;PMS_P2;Temp;Humidity;BMP_temperature;BMP_pressure;BME280_temperature;BME280_humidity;BME280_pressure;Samples;Min_cycle;Max_cycle;Signal;HPM_P1;HPM_P2
2020/12/13 00:01:36;;;;;;;21.05;11.18;;;;;;;7.19;81.93;98771.16;5146035;27;20094;-65
2020/12/13 00:04:02;;;;;;;22.13;13.70;;;;;;;7.25;80.78;98765.25;5145838;27;20358;-66
2020/12/13 00:06:30;;;;;;;25.75;14.75;;;;;;;7.23;80.30;98767.22;5145757;27;20343;-65
2020/12/13 00:08:56;;;;;;;23.20;13.77;;;;;;;7.38;78.86;98762.13;5145696;27;20076;-67
2020/12/13 00:11:22;;;;;;;20.58;12.75;;;;;;;7.29;80.57;98781.56;5145179;27;20313;-67
2020/12/13 00:13:47;;;;;;;17.38;10.73;;;;;;;7.22;80.35;98791.06;5145129;27;20076;-66
2020/12/13 00:16:14;;;;;;;16.40;9.88;;;;;;;7.33;79.74;98794.22;5145513;27;20221;-66
2020/12/13 00:18:41;;;;;;;19.05;10.55;;;;;;;7.49;78.97;98797.84;5145596;27;20336;-66
2020/12/13 00:21:09;;;;;;;18.77;9.95;;;;;;;7.53;78.77;98801.81;5145080;27;20219;-67
2020/12/13 00:23:34;;;;;;;21.17;10.43;;;;;;;7.50;78.57;98812.66;5144993;27;20038;-66
2020/12/13 00:25:59;;;;;;;17.58;10.30;;;;;;;7.49;78.28;98811.03;5145154;27;20098;-66
2020/12/13 00:28:25;;;;;;;22.63;10.75;;;;;;;7.61;77.15;98804.44;5145037;27;20377;-65
2020/12/13 00:30:50;;;;;;;21.52;10.80;;;;;;;7.38;77.91;98803.44;5145027;27;20352;-65
2020/12/13 00:33:16;;;;;;;19.63;10.70;;;;;;;7.35;78.62;98799.34;5144635;27;20027;-67
2020/12/13 00:35:41;;;;;;;20.67;10.80;;;;;;;7.39;78.59;98802.47;5144906;27;20035;-65
2020/12/13 00:38:06;;;;;;;18.90;10.00;;;;;;;7.49;78.55;98792.59;5144712;27;20042;-66
2020/12/13 00:40:32;;;;;;;20.52;10.95;;;;;;;7.54;77.76;98793.72;5126617;27;20254;-66
2020/12/13 00:42:57;;;;;;;19.58;10.95;;;;;;;7.42;78.11;98797.69;5144634;27;20035;-65
2020/12/13 00:45:23;;;;;;;26.40;12.35;;;;;;;7.26;78.86;98797.66;5144741;27;20093;-66
2020/12/13 00:47:49;;;;;;;33.60;14.65;;;;;;;6.99;81.31;98790.88;5144615;27;20041;-66
2020/12/13 00:50:14;;;;;;;27.85;12.57;;;;;;;7.02;80.86;98793.19;5144506;27;20027;-65
2020/12/13 00:52:44;;;;;;;22.42;10.75;;;;;;;7.15;80.81;98801.44;5144543;27;20329;-66
2020/12/13 00:55:09;;;;;;;20.88;11.13;;;;;;;7.41;78.41;98811.84;5144302;27;20037;-65
2020/12/13 00:57:35;;;;;;;21.83;10.98;;;;;;;7.34;77.69;98814.31;5144977;27;20034;-65
2020/12/13 01:00:00;;;;;;;25.38;14.20;;;;;;;7.20;78.96;98817.56;5144443;27;20019;-66
2020/12/13 01:02:26;;;;;;;32.67;13.48;;;;;;;7.21;79.08;98813.13;5144933;27;20027;-67
2020/12/13 01:04:52;;;;;;;30.40;14.98;;;;;;;6.93;80.67;98818.69;5144380;27;20033;-67
2020/12/13 01:07:18;;;;;;;30.17;14.90;;;;;;;7.12;80.12;98812.28;5144860;27;20035;-65
2020/12/13 01:09:43;;;;;;;33.97;17.25;;;;;;;7.01;80.53;98807.34;5144309;27;20019;-65
2020/12/13 01:12:09;;;;;;;30.08;16.00;;;;;;;7.29;78.04;98805.25;5144544;27;20043;-65
2020/12/13 01:14:34;;;;;;;31.90;16.60;;;;;;;7.09;78.76;98806.53;5144167;27;20031;-65
2020/12/13 01:17:00;;;;;;;31.30;16.88;;;;;;;7.14;78.74;98817.38;5144647;27;20124;-66
2020/12/13 01:19:25;;;;;;;29.30;15.73;;;;;;;7.07;79.74;98816.41;5144201;27;20110;-65
2020/12/13 01:21:50;;;;;;;30.45;15.55;;;;;;;7.16;79.53;98820.69;5144008;27;20397;-65
2020/12/13 01:24:19;;;;;;;29.80;16.17;;;;;;;7.19;78.63;98818.56;5144253;27;20041;-66
2020/12/13 01:26:44;;;;;;;32.97;17.98;;;;;;;7.20;78.54;98820.19;5144234;27;20073;-65
2020/12/13 01:29:10;;;;;;;31.92;18.13;;;;;;;7.15;78.60;98822.50;5144201;27;20023;-66
2020/12/13 01:31:36;;;;;;;31.77;17.45;;;;;;;6.78;79.75;98822.91;5143928;27;20281;-65
2020/12/13 01:34:01;;;;;;;42.78;18.45;;;;;;;6.84;80.18;98809.13;5144135;27;20023;-65
2020/12/13 01:36:26;;;;;;;47.03;18.90;;;;;;;6.90;79.99;98813.72;5143935;27;20024;-65
2020/12/13 01:38:52;;;;;;;40.60;17.75;;;;;;;6.85;80.40;98816.03;5143949;28;20060;-65
2020/12/13 01:41:18;;;;;;;48.17;18.65;;;;;;;7.01;79.24;98825.75;5144408;28;20020;-66
2020/12/13 01:44:12;;;;;;;49.95;18.35;;;;;;;7.10;78.03;98829.22;5144653;27;20312;-66
2020/12/13 01:46:38;;;;;;;64.90;20.40;;;;;;;7.05;78.17;98830.53;5132782;27;20046;-66
2020/12/13 01:49:09;;;;;;;46.22;18.70;;;;;;;7.09;77.93;98830.22;5148442;27;20038;-66
2020/12/13 01:54:42;;;;;;;32.88;16.08;;;;;;;6.77;79.29;98834.41;5113305;27;20225;-65
2020/12/13 01:57:09;;;;;;;29.77;14.98;;;;;;;6.87;79.26;98832.47;5148298;27;20035;-67
2020/12/13 01:59:36;;;;;;;34.33;15.93;;;;;;;6.85;79.45;98834.44;5147955;27;20086;-67
2020/12/13 02:02:03;;;;;;;31.73;16.30;;;;;;;6.88;80.03;98839.38;5129743;27;20023;-65
2020/12/13 02:04:34;;;;;;;34.45;15.57;;;;;;;6.87;79.40;98834.28;5147798;27;20033;-66
2020/12/13 02:07:01;;;;;;;29.83;14.88;;;;;;;6.96;78.69;98838.59;5148230;27;20043;-66
2020/12/13 02:09:26;;;;;;;25.92;13.75;;;;;;;7.05;78.54;98841.06;5148038;27;20209;-67
2020/12/13 02:11:52;;;;;;;28.27;14.45;;;;;;;7.05;78.48;98848.97;5147896;27;20051;-65
2020/12/13 02:14:19;;;;;;;25.45;13.75;;;;;;;6.82;79.56;98837.41;5147496;27;20220;-66
2020/12/13 02:16:47;;;;;;;24.65;12.45;;;;;;;6.68;80.36;98849.34;5129472;27;20362;-67
2020/12/13 02:19:14;;;;;;;42.47;16.38;;;;;;;6.56;81.18;98855.06;5147763;27;20082;-67
2020/12/13 02:21:42;;;;;;;85.22;29.80;;;;;;;6.60;81.10;98844.06;5147761;27;20035;-66
2020/12/13 02:24:08;;;;;;;58.83;21.00;;;;;;;6.42;81.65;98838.06;5147446;27;20030;-65
2020/12/13 02:26:41;;;;;;;46.67;17.85;;;;;;;6.35;81.64;98832.63;5147588;27;20081;-66
2020/12/13 02:29:07;;;;;;;32.88;14.25;;;;;;;6.32;81.71;98821.59;5147362;27;20368;-65
2020/12/13 02:31:33;;;;;;;42.65;14.75;;;;;;;6.65;80.77;98823.38;5147640;27;20054;-65
2020/12/13 02:33:59;;;;;;;54.67;18.52;;;;;;;6.80;79.84;98820.94;5147402;27;20027;-65
2020/12/13 02:36:24;;;;;;;44.80;16.60;;;;;;;6.76;79.93;98821.44;5147615;27;20099;-65
2020/12/13 02:38:49;;;;;;;31.58;15.90;;;;;;;6.95;77.88;98835.13;5147387;27;20226;-65
2020/12/13 02:41:15;;;;;;;34.30;16.40;;;;;;;6.92;77.27;98834.63;5147350;27;20297;-65
2020/12/13 02:43:40;;;;;;;29.48;15.68;;;;;;;6.69;78.67;98834.41;5147332;27;20079;-67
2020/12/13 02:46:06;;;;;;;40.30;15.38;;;;;;;6.44;81.01;98841.38;5147377;27;20398;-65
2020/12/13 02:48:31;;;;;;;27.30;14.63;;;;;;;6.58;80.59;98853.09;5146975;27;20380;-67
2020/12/13 02:50:56;;;;;;;31.60;14.97;;;;;;;6.51;81.66;98850.28;5147122;27;20043;-66
2020/12/13 02:53:22;;;;;;;35.58;15.68;;;;;;;6.61;81.36;98839.63;5146832;27;20090;-65
2020/12/13 02:55:47;;;;;;;33.25;15.45;;;;;;;6.70;80.62;98836.03;5146809;27;20023;-66
2020/12/13 02:58:13;;;;;;;33.92;15.38;;;;;;;6.75;80.18;98851.34;5146867;27;20279;-65
2020/12/13 03:00:38;;;;;;;33.53;16.70;;;;;;;6.87;79.52;98852.69;5147136;27;20356;-66
2020/12/13 03:03:04;;;;;;;38.65;15.75;;;;;;;6.89;80.32;98845.47;5146662;27;20095;-65
2020/12/13 03:05:29;;;;;;;27.13;14.15;;;;;;;6.81;80.64;98848.09;5146827;27;20083;-66
2020/12/13 03:07:54;;;;;;;25.98;14.15;;;;;;;6.53;81.84;98855.38;5146590;27;20270;-67
2020/12/13 03:10:20;;;;;;;27.15;14.30;;;;;;;6.64;81.68;98852.47;5146649;27;20109;-66
2020/12/13 03:12:45;;;;;;;27.05;13.48;;;;;;;6.86;80.48;98853.69;5146379;27;20072;-65
2020/12/13 03:15:11;;;;;;;26.73;14.15;;;;;;;6.65;81.77;98848.84;5146545;27;20019;-66
2020/12/13 03:17:36;;;;;;;26.13;14.15;;;;;;;6.75;81.92;98853.97;5147033;27;20039;-65
2020/12/13 03:20:03;;;;;;;35.92;18.48;;;;;;;6.74;81.68;98850.53;5146630;27;20019;-66
2020/12/13 03:22:29;;;;;;;32.63;16.85;;;;;;;6.90;80.46;98847.94;5146859;27;20035;-66
2020/12/13 03:24:54;;;;;;;34.65;17.00;;;;;;;7.05;78.42;98842.88;5146069;27;20045;-65
2020/12/13 03:27:24;;;;;;;30.83;16.23;;;;;;;6.76;80.17;98842.47;5146628;27;20031;-65
2020/12/13 03:29:50;;;;;;;31.48;15.25;;;;;;;6.73;81.49;98839.19;5146400;27;20228;-65
2020/12/13 03:32:15;;;;;;;28.90;14.10;;;;;;;6.85;80.33;98834.44;5146644;27;20076;-66
2020/12/13 03:34:40;;;;;;;30.20;15.52;;;;;;;6.90;80.03;98840.06;5146354;27;20027;-66
2020/12/13 03:37:07;;;;;;;27.65;15.18;;;;;;;6.92;80.19;98832.81;5146529;27;20099;-66
2020/12/13 03:39:32;;;;;;;31.20;17.42;;;;;;;6.70;80.81;98836.03;5146044;27;20022;-65
2020/12/13 03:41:58;;;;;;;34.83;17.65;;;;;;;6.97;79.18;98827.91;5146284;27;20031;-65
2020/12/13 03:44:23;;;;;;;31.63;17.65;;;;;;;6.69;80.98;98837.03;5146289;27;20022;-65
2020/12/13 03:46:49;;;;;;;28.55;16.58;;;;;;;6.85;80.51;98823.09;5146233;27;20205;-66
2020/12/13 03:49:14;;;;;;;27.63;14.85;;;;;;;6.79;81.28;98827.19;5145906;27;20086;-67
2020/12/13 03:51:39;;;;;;;27.52;14.32;;;;;;;6.56;81.94;98834.03;5145973;27;20023;-65
2020/12/13 03:54:05;;;;;;;29.45;15.48;;;;;;;6.56;81.89;98844.53;5145660;27;20031;-66
2020/12/13 03:56:30;;;;;;;26.25;14.43;;;;;;;6.60;82.05;98844.06;5145925;27;20045;-67
2020/12/13 03:58:56;;;;;;;29.08;14.82;;;;;;;6.48;81.50;98850.59;5145582;27;20038;-65
2020/12/13 04:01:21;;;;;;;28.27;14.88;;;;;;;6.48;82.93;98855.03;5145954;27;20049;-65
2020/12/13 04:03:46;;;;;;;28.00;14.93;;;;;;;6.63;81.53;98846.38;5145460;27;20221;-65
2020/12/13 04:06:12;;;;;;;27.90;14.93;;;;;;;6.46;82.80;98842.03;5145292;27;20364;-65
2020/12/13 04:08:37;;;;;;;26.25;14.52;;;;;;;6.51;81.86;98850.28;5145412;27;20029;-66
2020/12/13 04:11:03;;;;;;;26.63;15.10;;;;;;;6.40;82.21;98854.00;5145528;27;20103;-66
2020/12/13 04:13:28;;;;;;;24.73;13.32;;;;;;;6.33;83.43;98847.72;5145115;27;20038;-65
2020/12/13 04:15:54;;;;;;;30.48;15.52;;;;;;;6.34;82.93;98845.94;5145566;27;20192;-65
2020/12/13 04:18:19;;;;;;;29.75;15.15;;;;;;;6.54;82.82;98857.84;5145200;27;20023;-67
2020/12/13 04:20:45;;;;;;;28.58;14.25;;;;;;;6.22;84.64;98860.28;5145478;27;20031;-67
2020/12/13 04:23:10;;;;;;;29.45;14.85;;;;;;;6.28;83.97;98855.25;5145146;27;20027;-66
2020/12/13 04:25:35;;;;;;;31.15;15.27;;;;;;;6.16;84.90;98859.09;5145052;27;20087;-66
2020/12/13 04:28:01;;;;;;;25.75;14.20;;;;;;;6.14;84.90;98855.81;5144911;27;20030;-65
2020/12/13 04:30:26;;;;;;;37.60;17.52;;;;;;;6.05;86.04;98852.31;5145129;27;20019;-65
2020/12/13 04:32:52;;;;;;;58.33;16.85;;;;;;;6.02;86.63;98862.31;5145001;27;20205;-66
2020/12/13 04:35:17;;;;;;;51.15;18.27;;;;;;;6.09;86.62;98856.28;5144934;27;20022;-66
2020/12/13 04:37:43;;;;;;;51.30;19.45;;;;;;;6.27;86.77;98850.97;5144890;27;20328;-67
2020/12/13 04:40:08;;;;;;;80.88;18.23;;;;;;;6.30;86.19;98849.84;5144933;27;20328;-65
2020/12/13 04:42:36;;;;;;;83.55;18.75;;;;;;;6.23;86.62;98864.56;5145261;27;20065;-65
2020/12/13 04:45:05;;;;;;;90.93;18.67;;;;;;;6.31;86.52;98867.28;5144666;27;20082;-65
2020/12/13 04:47:32;;;;;;;85.95;17.67;;;;;;;6.48;85.70;98866.38;5145132;27;20023;-66
2020/12/13 04:50:01;;;;;;;84.65;17.38;;;;;;;6.37;86.34;98874.53;5144558;27;20023;-67
2020/12/13 04:52:28;;;;;;;76.30;17.52;;;;;;;6.40;85.94;98884.75;5145139;27;20035;-65
2020/12/13 04:54:54;;;;;;;105.78;17.38;;;;;;;6.48;84.62;98883.97;5144271;27;20108;-66
2020/12/13 04:57:20;;;;;;;79.10;18.27;;;;;;;6.25;85.07;98894.19;5144948;27;20388;-66
2020/12/13 04:59:47;;;;;;;86.93;18.23;;;;;;;6.24;85.55;98896.00;5144472;27;20289;-65
2020/12/13 05:02:13;;;;;;;66.50;17.08;;;;;;;6.02;86.32;98901.72;5144807;27;20315;-66
2020/12/13 05:04:40;;;;;;;71.63;19.33;;;;;;;5.87;87.97;98905.84;5144453;27;20027;-65
2020/12/13 05:07:06;;;;;;;75.03;20.13;;;;;;;5.99;87.88;98912.53;5144803;27;20035;-67
2020/12/13 05:09:32;;;;;;;64.03;18.42;;;;;;;5.96;88.76;98916.31;5144444;27;20323;-65
2020/12/13 05:11:57;;;;;;;62.83;21.05;;;;;;;6.05;88.12;98914.56;5144299;27;20100;-65
2020/12/13 05:14:23;;;;;;;55.63;21.15;;;;;;;6.17;87.04;98909.88;5144145;27;20027;-67
2020/12/13 05:16:48;;;;;;;73.70;27.15;;;;;;;6.25;85.97;98900.28;5144519;27;20027;-66
2020/12/13 05:19:14;;;;;;;51.63;22.20;;;;;;;5.95;85.48;98898.88;5143480;27;20037;-65
2020/12/13 05:21:41;;;;;;;53.15;24.83;;;;;;;5.89;86.45;98896.00;5144631;27;20106;-65
2020/12/13 05:24:07;;;;;;;45.13;20.20;;;;;;;5.93;86.92;98898.22;5144043;27;20321;-65
2020/12/13 05:26:33;;;;;;;70.93;29.70;;;;;;;5.84;86.30;98893.84;5144098;27;20068;-65
2020/12/13 05:29:04;;;;;;;69.17;24.43;;;;;;;5.73;86.92;98894.91;5144263;27;20015;-65
2020/12/13 05:31:31;;;;;;;60.53;20.70;;;;;;;5.72;87.20;98895.06;5144364;27;20039;-65
2020/12/13 05:34:06;;;;;;;290.17;75.88;;;;;;;5.93;86.38;98911.34;5143834;27;20202;-65
2020/12/13 05:36:37;;;;;;;128.02;43.63;;;;;;;5.75;87.77;98908.72;5144295;27;20035;-66
2020/12/13 05:39:03;;;;;;;81.35;16.27;;;;;;;5.58;88.50;98912.19;5144016;27;20027;-67
2020/12/13 05:41:31;;;;;;;67.72;17.35;;;;;;;5.82;88.38;98913.38;5144180;28;20039;-66
2020/12/13 05:44:12;;;;;;;72.93;18.45;;;;;;;5.87;88.44;98914.56;5143886;28;20033;-65
2020/12/13 05:51:54;;;;;;;79.25;32.72;;;;;;;6.02;88.35;98918.31;5144198;28;20438;-65
2020/12/13 05:56:52;;;;;;;75.93;22.13;;;;;;;6.13;88.62;98929.56;5144074;28;20056;-65
2020/12/13 05:59:18;;;;;;;69.38;19.63;;;;;;;5.93;89.01;98928.91;5144049;28;20031;-67
2020/12/13 06:01:47;;;;;;;75.53;26.70;;;;;;;5.99;89.38;98929.13;5144089;28;20032;-65
2020/12/13 06:04:15;;;;;;;59.33;17.08;;;;;;;6.13;88.17;98922.50;5144003;28;20030;-65
2020/12/13 06:06:44;;;;;;;72.68;14.77;;;;;;;6.10;88.45;98933.31;5144150;28;20024;-65
2020/12/13 06:09:12;;;;;;;75.78;21.92;;;;;;;6.17;88.79;98942.25;5143956;28;20149;-65
2020/12/13 06:11:49;;;;;;;144.20;30.73;;;;;;;6.26;88.43;98943.97;5143460;28;20378;-65
2020/12/13 06:14:20;;;;;;;94.72;28.55;;;;;;;6.29;87.74;98938.41;5143544;28;20085;-65
2020/12/13 06:16:47;;;;;;;67.80;15.80;;;;;;;6.27;88.33;98947.44;5143933;28;20031;-66
2020/12/13 06:19:16;;;;;;;70.57;14.05;;;;;;;6.33;87.85;98955.53;5143476;28;20068;-65
2020/12/13 06:21:43;;;;;;;55.90;11.07;;;;;;;6.11;88.29;98948.09;5143886;28;20027;-65
2020/12/13 06:24:08;;;;;;;63.70;13.30;;;;;;;6.23;87.72;98953.94;5143415;28;20027;-65
2020/12/13 06:26:35;;;;;;;70.03;14.93;;;;;;;6.33;87.58;98963.41;5143687;28;20194;-67
2020/12/13 06:29:02;;;;;;;93.00;15.57;;;;;;;6.50;87.55;98961.72;5143383;27;20031;-65
2020/12/13 06:31:28;;;;;;;75.35;18.73;;;;;;;6.47;86.62;98969.09;5147498;27;20300;-67
2020/12/13 06:33:53;;;;;;;98.63;22.98;;;;;;;6.52;86.58;98969.44;5147276;27;20053;-66
2020/12/13 06:36:24;;;;;;;78.60;23.88;;;;;;;6.51;86.22;98975.69;5147602;27;20050;-65
2020/12/13 06:38:56;;;;;;;152.40;36.47;;;;;;;6.57;86.74;98969.81;5147367;27;20030;-65
2020/12/13 06:41:27;;;;;;;126.07;32.42;;;;;;;6.69;85.87;98965.94;5147473;27;20038;-65
2020/12/13 06:43:56;;;;;;;138.77;74.68;;;;;;;6.66;86.97;98974.13;5147258;27;20216;-65
2020/12/13 06:46:26;;;;;;;74.80;35.40;;;;;;;6.66;87.30;98980.22;5147374;27;20035;-66
2020/12/13 06:48:52;;;;;;;65.75;23.40;;;;;;;6.81;85.58;98977.84;5128665;27;20213;-65
2020/12/13 06:51:30;;;;;;;61.75;26.45;;;;;;;6.74;85.49;98976.81;5147248;27;20039;-66
2020/12/13 06:53:58;;;;;;;45.40;19.48;;;;;;;6.84;84.85;98987.22;5146702;27;20103;-66
2020/12/13 06:56:23;;;;;;;44.67;21.75;;;;;;;6.94;83.65;98980.88;5147072;27;20027;-65
2020/12/13 06:58:55;;;;;;;48.13;23.90;;;;;;;6.71;84.28;98985.03;5146988;27;20027;-65
2020/12/13 07:01:22;;;;;;;58.78;30.65;;;;;;;6.63;84.62;98995.50;5147137;27;20055;-67
2020/12/13 07:03:49;;;;;;;59.28;30.40;;;;;;;6.57;85.94;99004.00;5128398;27;20022;-67
2020/12/13 07:06:27;;;;;;;51.17;24.92;;;;;;;6.94;84.12;99009.00;5146726;27;20031;-66
2020/12/13 07:08:57;;;;;;;52.42;24.23;;;;;;;6.88;83.83;99012.25;5146582;27;20279;-67
2020/12/13 07:11:25;;;;;;;47.05;22.42;;;;;;;6.88;84.23;99015.69;5146963;27;20038;-65
2020/12/13 07:13:52;;;;;;;57.75;24.48;;;;;;;6.87;85.38;99021.94;5146475;27;20126;-65
2020/12/13 07:16:32;;;;;;;42.95;21.83;;;;;;;6.91;85.09;99019.81;5146509;27;20090;-65
2020/12/13 07:19:06;;;;;;;36.17;19.08;;;;;;;6.99;84.83;99019.88;5146721;27;20204;-65
2020/12/13 07:21:32;;;;;;;37.30;18.70;;;;;;;7.00;84.82;99018.88;5146796;27;20031;-66
2020/12/13 07:24:00;;;;;;;32.20;16.45;;;;;;;7.08;84.45;99023.38;5146189;27;20042;-67
2020/12/13 07:26:27;;;;;;;33.17;16.90;;;;;;;7.12;83.14;99024.69;5146428;27;20035;-65
2020/12/13 07:28:54;;;;;;;34.20;16.73;;;;;;;6.92;84.88;99019.66;5146285;27;20031;-66
2020/12/13 07:31:21;;;;;;;37.60;18.20;;;;;;;7.13;83.57;99015.81;5146717;27;20207;-65
2020/12/13 07:33:46;;;;;;;53.70;24.52;;;;;;;7.22;83.83;99010.44;5146014;27;20046;-65
2020/12/13 07:36:12;;;;;;;47.78;23.23;;;;;;;6.98;84.01;99005.06;5146397;27;20034;-65
2020/12/13 07:38:42;;;;;;;49.00;27.25;;;;;;;6.94;84.54;99019.50;5146074;27;20038;-65
2020/12/13 07:41:19;;;;;;;59.85;30.23;;;;;;;7.11;84.12;99012.53;5145383;27;20351;-65
2020/12/13 07:44:11;;;;;;;52.63;27.85;;;;;;;7.30;82.73;99012.31;5145806;27;20031;-65
2020/12/13 07:46:40;;;;;;;36.25;18.75;;;;;;;7.11;82.92;99023.88;5142610;27;20047;-65
2020/12/13 07:49:09;;;;;;;30.45;15.55;;;;;;;7.03;84.12;99029.94;5146128;27;20037;-65
2020/12/13 07:51:43;;;;;;;50.03;24.45;;;;;;;7.24;83.78;99034.78;5146181;27;20125;-67
2020/12/13 07:54:17;;;;;;;55.60;27.20;;;;;;;7.27;83.62;99038.91;5145544;27;20102;-65
2020/12/13 07:56:43;;;;;;;;;;;;;;;7.19;83.73;99042.34;5146585;27;20042;-65
2020/12/13 07:59:14;;;;;;;44.75;25.50;;;;;;;7.21;84.43;99044.81;5145583;27;19907;-65
2020/12/13 08:01:40;;;;;;;46.67;24.98;;;;;;;7.26;84.21;99035.47;5145983;27;20039;-65
2020/12/13 08:04:07;;;;;;;49.17;23.60;;;;;;;7.37;83.22;99029.13;5145788;27;20213;-65
2020/12/13 08:06:33;;;;;;;40.08;20.85;;;;;;;7.44;82.77;99032.75;5146009;27;20051;-65
2020/12/13 08:08:59;;;;;;;38.80;17.95;;;;;;;7.46;83.36;99043.16;5145383;27;20041;-65
2020/12/13 08:11:25;;;;;;;38.63;17.08;;;;;;;7.57;82.73;99046.31;5145432;27;20304;-67
2020/12/13 08:13:54;;;;;;;29.98;12.98;;;;;;;7.63;82.84;99047.47;5145330;27;20403;-66
2020/12/13 08:16:22;;;;;;;19.67;12.30;;;;;;;7.63;81.84;99034.31;5145969;27;20250;-66
2020/12/13 08:18:49;;;;;;;21.48;11.55;;;;;;;7.52;82.75;99050.41;5145226;27;20022;-67
2020/12/13 08:21:22;;;;;;;22.52;12.38;;;;;;;7.78;81.86;99048.50;5126979;27;20045;-66
2020/12/13 08:23:52;;;;;;;42.90;21.77;;;;;;;7.84;81.78;99050.50;5145048;27;20050;-65
2020/12/13 08:26:17;;;;;;;74.18;29.25;;;;;;;7.82;82.37;99046.38;5145240;27;20080;-66
2020/12/13 08:28:47;;;;;;;78.05;31.85;;;;;;;7.86;81.79;99050.34;5144996;27;20027;-66
2020/12/13 08:31:16;;;;;;;48.75;20.77;;;;;;;7.89;81.69;99050.84;5145320;27;20031;-67
2020/12/13 08:33:41;;;;;;;30.38;16.50;;;;;;;7.75;81.75;99048.00;5144894;27;20027;-67
2020/12/13 08:36:36;;;;;;;33.50;16.90;;;;;;;7.60;83.11;99046.00;5145152;27;20419;-66
2020/12/13 08:39:11;;;;;;;;;;;;;;;7.69;83.07;99034.50;5128046;27;20316;-66
2020/12/13 08:41:45;;;;;;;57.28;27.00;;;;;;;7.80;83.13;99043.06;5144892;27;19919;-65
2020/12/13 08:44:25;;;;;;;51.22;22.92;;;;;;;7.84;82.50;99037.31;5144846;27;20039;-65
2020/12/13 08:46:51;;;;;;;32.08;16.50;;;;;;;7.60;82.70;99029.34;5126542;27;20325;-65
2020/12/13 08:49:24;;;;;;;31.40;16.75;;;;;;;7.72;82.59;99035.97;5144686;27;20030;-67
2020/12/13 08:51:49;;;;;;;35.63;17.55;;;;;;;7.67;83.29;99033.81;5144987;27;20094;-65
2020/12/13 08:54:14;;;;;;;78.10;32.30;;;;;;;7.88;83.26;99041.28;5144311;27;20229;-66
2020/12/13 08:56:42;;;;;;;35.97;19.33;;;;;;;7.95;82.81;99044.09;5144834;27;20079;-66
2020/12/13 08:59:08;;;;;;;32.65;16.02;;;;;;;7.98;82.96;99049.03;5144465;27;20027;-65
2020/12/13 09:01:37;;;;;;;30.88;16.45;;;;;;;7.90;83.28;99041.13;5144729;27;20042;-67
2020/12/13 09:04:30;;;;;;;30.50;17.77;;;;;;;7.94;83.83;99037.19;5144431;27;20284;-66
2020/12/13 09:07:01;;;;;;;40.47;18.88;;;;;;;8.00;82.71;99034.72;5141743;27;20046;-67
2020/12/13 09:09:32;;;;;;;38.08;17.38;;;;;;;7.80;84.73;99030.72;5144357;27;20088;-65
2020/12/13 09:11:58;;;;;;;42.72;20.95;;;;;;;7.91;84.05;99025.16;5144247;27;20054;-67
2020/12/13 09:14:25;;;;;;;59.17;27.02;;;;;;;7.85;83.42;99025.78;5125911;27;20313;-66
2020/12/13 09:16:51;;;;;;;58.58;26.67;;;;;;;7.97;83.13;99028.94;5144534;27;20035;-66
2020/12/13 09:19:16;;;;;;;36.85;17.80;;;;;;;7.83;84.45;99025.13;5144272;27;20060;-65
2020/12/13 09:21:48;;;;;;;38.45;19.05;;;;;;;8.00;85.13;99023.34;5144425;27;20305;-67
2020/12/13 09:24:16;;;;;;;31.83;14.57;;;;;;;8.16;84.93;99015.44;5143956;27;20027;-66
2020/12/13 09:26:55;;;;;;;30.95;13.32;;;;;;;8.14;84.38;99013.97;5144434;27;20072;-66
2020/12/13 09:29:20;;;;;;;27.95;14.45;;;;;;;8.21;83.81;99018.41;5144351;27;20027;-65
2020/12/13 09:31:46;;;;;;;25.73;14.60;;;;;;;8.12;84.44;99016.75;5144410;27;20336;-65
2020/12/13 09:34:11;;;;;;;32.35;16.65;;;;;;;7.98;84.94;99007.69;5143897;27;20053;-67
2020/12/13 09:36:37;;;;;;;28.77;15.52;;;;;;;8.06;85.32;99001.59;5144323;27;20035;-66
2020/12/13 09:39:02;;;;;;;25.25;13.95;;;;;;;7.99;85.64;98996.16;5143987;27;20095;-67
2020/12/13 09:41:28;;;;;;;30.52;15.02;;;;;;;8.25;84.96;98993.34;5144265;28;20072;-67
2020/12/13 09:43:53;;;;;;;31.10;17.52;;;;;;;8.21;84.48;98999.13;5143823;28;20364;-66
2020/12/13 09:46:19;;;;;;;34.58;18.05;;;;;;;8.28;83.69;98987.75;5144187;28;20098;-67
2020/12/13 09:48:44;;;;;;;51.60;20.40;;;;;;;8.22;84.64;98983.13;5143868;28;20054;-67
2020/12/13 09:51:15;;;;;;;43.35;25.33;;;;;;;8.17;84.75;98990.72;5144012;28;20041;-66
2020/12/13 09:53:40;;;;;;;39.35;23.63;;;;;;;8.30;85.02;98990.22;5143628;28;20099;-66
2020/12/13 09:56:06;;;;;;;37.95;21.27;;;;;;;8.15;85.60;98992.69;5143822;28;20055;-67
2020/12/13 09:58:31;;;;;;;36.83;18.67;;;;;;;8.20;85.87;98984.28;5143865;28;20026;-66
2020/12/13 10:00:57;;;;;;;35.45;18.45;;;;;;;8.29;85.85;98980.66;5143959;28;20315;-66
2020/12/13 10:03:22;;;;;;;38.17;18.70;;;;;;;8.21;85.89;98991.22;5143996;28;20110;-66
2020/12/13 10:11:10;;;;;;;40.58;22.60;;;;;;;8.37;84.95;98996.53;5147704;27;20052;-66
2020/12/13 10:13:35;;;;;;;47.60;22.83;;;;;;;8.41;85.41;98997.03;5147623;27;20027;-65
2020/12/13 10:16:01;;;;;;;35.97;19.70;;;;;;;8.24;84.73;98991.72;5147829;27;20095;-66
2020/12/13 10:18:26;;;;;;;31.58;17.17;;;;;;;8.25;85.12;98989.91;5147674;27;20019;-66
2020/12/13 10:20:52;;;;;;;37.42;19.13;;;;;;;8.34;85.57;98991.59;5147700;27;20041;-65
2020/12/13 10:23:17;;;;;;;36.75;20.30;;;;;;;8.32;85.37;98988.25;5147521;27;20086;-66
2020/12/13 10:25:46;;;;;;;44.05;22.10;;;;;;;8.47;85.29;98989.28;5147524;27;20098;-67
2020/12/13 10:28:12;;;;;;;37.63;18.60;;;;;;;8.35;85.32;98985.34;5147697;27;20031;-66
2020/12/13 10:30:37;;;;;;;37.35;19.40;;;;;;;8.30;85.11;98988.41;5147524;27;20042;-67
2020/12/13 10:33:03;;;;;;;44.28;22.67;;;;;;;8.41;85.42;98989.13;5147297;27;20035;-67
2020/12/13 10:35:28;;;;;;;47.60;23.65;;;;;;;8.32;85.15;98991.72;5147281;27;20071;-65
2020/12/13 10:37:53;;;;;;;40.05;20.92;;;;;;;8.46;84.98;98985.00;5147281;27;20031;-65
2020/12/13 10:40:19;;;;;;;33.97;18.23;;;;;;;8.38;84.38;98978.91;5147470;27;20317;-65
2020/12/13 10:42:44;;;;;;;35.55;18.67;;;;;;;8.40;85.45;98976.94;5147131;27;20090;-67
2020/12/13 10:45:10;;;;;;;29.85;17.63;;;;;;;8.44;84.69;98976.41;5147177;27;20114;-66
2020/12/13 10:47:35;;;;;;;31.77;17.52;;;;;;;8.43;85.14;98979.22;5147572;27;20177;-66
2020/12/13 10:50:00;;;;;;;34.95;17.95;;;;;;;8.59;83.99;98973.94;5146934;27;20272;-67
2020/12/13 10:52:26;;;;;;;40.10;19.77;;;;;;;8.69;84.15;98969.28;5147440;27;20110;-67
2020/12/13 10:54:51;;;;;;;36.33;18.77;;;;;;;8.76;83.83;98966.78;5146664;27;20094;-65
2020/12/13 10:57:17;;;;;;;35.28;19.30;;;;;;;8.82;83.96;98968.75;5147270;27;20102;-67
2020/12/13 10:59:42;;;;;;;32.85;18.17;;;;;;;8.86;83.60;98965.59;5147144;27;20274;-65
2020/12/13 11:02:07;;;;;;;33.83;16.98;;;;;;;9.03;83.00;98973.47;5147120;27;20106;-66
2020/12/13 11:04:33;;;;;;;31.05;15.90;;;;;;;9.09;82.60;98963.03;5146647;27;20051;-65
2020/12/13 11:06:58;;;;;;;25.35;13.60;;;;;;;9.11;80.66;98957.59;5147080;27;20055;-65
2020/12/13 11:09:24;;;;;;;29.58;13.65;;;;;;;8.95;81.12;98947.91;5146859;27;20090;-66
2020/12/13 11:11:49;;;;;;;38.95;17.63;;;;;;;8.98;81.15;98946.75;5146505;27;20333;-65
2020/12/13 11:14:15;;;;;;;33.67;13.43;;;;;;;8.78;82.46;98965.63;5146796;27;20289;-66
2020/12/13 11:16:40;;;;;;;25.73;14.43;;;;;;;8.79;82.71;98961.16;5145372;27;20054;-65
2020/12/13 11:19:06;;;;;;;35.35;17.42;;;;;;;8.76;82.99;98969.44;5146416;27;20026;-66
2020/12/13 11:21:31;;;;;;;44.83;20.75;;;;;;;8.81;83.22;98967.94;5146554;27;20034;-68
2020/12/13 11:23:57;;;;;;;44.95;20.50;;;;;;;8.80;83.81;98973.38;5146183;27;20049;-65
2020/12/13 11:26:22;;;;;;;46.13;21.63;;;;;;;8.92;82.75;98978.13;5146476;27;20058;-68
2020/12/13 11:28:47;;;;;;;53.40;23.58;;;;;;;9.02;82.85;98969.19;5146206;27;20058;-67
2020/12/13 11:31:15;;;;;;;42.30;20.42;;;;;;;8.92;82.88;98964.91;5146421;27;20102;-67
2020/12/13 11:33:41;;;;;;;41.80;20.83;;;;;;;8.93;83.27;98968.38;5146340;27;20117;-65
2020/12/13 11:36:07;;;;;;;50.60;23.23;;;;;;;8.84;83.18;98964.94;5146414;27;20279;-65
2020/12/13 11:38:32;;;;;;;41.25;20.13;;;;;;;8.77;83.02;98965.78;5146073;27;20022;-65
2020/12/13 11:40:57;;;;;;;39.50;20.40;;;;;;;8.80;83.33;98963.63;5146143;27;20047;-65
2020/12/13 11:43:23;;;;;;;36.35;19.27;;;;;;;8.82;83.48;98956.38;5145965;27;20019;-64